sensor_id;sensor_type;location;lat;lon;timestamp;P1;durP1;ratioP1;P2;durP2;ratioP2
982;SDS011;480;48.124;11.578;2023-04-25T00:01:40;2.80;;;1.87;;
982;SDS011;480;48.124;11.578;2023-04-25T00:04:07;2.03;;;1.87;;
982;SDS011;480;48.124;11.578;2023-04-25T00:06:35;3.40;;;1.80;;
982;SDS011;480;48.124;11.578;2023-04-25T00:09:03;3.30;;;2.00;;
982;SDS011;480;48.124;11.578;2023-04-25T00:11:32;2.07;;;1.87;;
982;SDS011;480;48.124;11.578;2023-04-25T00:13:59;2.07;;;1.97;;
982;SDS011;480;48.124;11.578;2023-04-25T00:16:27;2.57;;;2.07;;
982;SDS011;480;48.124;11.578;2023-04-25T00:18:58;2.47;;;1.93;;
982;SDS011;480;48.124;11.578;2023-04-25T00:21:26;5.87;;;1.63;;
982;SDS011;480;48.124;11.578;2023-04-25T00:23:55;1.50;;;1.40;;
982;SDS011;480;48.124;11.578;2023-04-25T00:26:22;2.27;;;2.07;;
982;SDS011;480;48.124;11.578;2023-04-25T00:28:49;2.10;;;2.00;;
982;SDS011;480;48.124;11.578;2023-04-25T00:31:16;1.70;;;1.60;;
982;SDS011;480;48.124;11.578;2023-04-25T00:33:43;2.10;;;1.83;;
982;SDS011;480;48.124;11.578;2023-04-25T00:36:10;2.20;;;2.00;;
982;SDS011;480;48.124;11.578;2023-04-25T00:38:37;2.50;;;2.30;;
982;SDS011;480;48.124;11.578;2023-04-25T00:41:05;3.17;;;1.90;;
982;SDS011;480;48.124;11.578;2023-04-25T00:43:33;1.60;;;1.50;;
982;SDS011;480;48.124;11.578;2023-04-25T00:46:03;3.80;;;2.17;;
982;SDS011;480;48.124;11.578;2023-04-25T00:48:30;4.83;;;2.47;;
982;SDS011;480;48.124;11.578;2023-04-25T00:50:58;3.03;;;2.83;;
982;SDS011;480;48.124;11.578;2023-04-25T00:53:26;2.80;;;2.10;;
982;SDS011;480;48.124;11.578;2023-04-25T00:55:53;2.23;;;2.03;;
982;SDS011;480;48.124;11.578;2023-04-25T00:58:22;2.60;;;2.37;;
982;SDS011;480;48.124;11.578;2023-04-25T01:00:50;2.23;;;1.90;;
982;SDS011;480;48.124;11.578;2023-04-25T01:03:18;2.63;;;2.10;;
982;SDS011;480;48.124;11.578;2023-04-25T01:05:45;2.33;;;2.13;;
982;SDS011;480;48.124;11.578;2023-04-25T01:08:13;2.63;;;2.00;;
982;SDS011;480;48.124;11.578;2023-04-25T01:10:40;2.60;;;2.07;;
982;SDS011;480;48.124;11.578;2023-04-25T01:13:07;2.63;;;1.97;;
982;SDS011;480;48.124;11.578;2023-04-25T01:15:36;2.50;;;2.10;;
982;SDS011;480;48.124;11.578;2023-04-25T01:18:03;3.13;;;2.20;;
982;SDS011;480;48.124;11.578;2023-04-25T01:20:32;1.70;;;1.60;;
982;SDS011;480;48.124;11.578;2023-04-25T01:23:01;2.20;;;2.03;;
982;SDS011;480;48.124;11.578;2023-04-25T01:25:29;1.80;;;1.70;;
982;SDS011;480;48.124;11.578;2023-04-25T01:27:56;2.83;;;1.80;;
982;SDS011;480;48.124;11.578;2023-04-25T01:30:24;1.57;;;1.47;;
982;SDS011;480;48.124;11.578;2023-04-25T01:32:53;2.07;;;1.87;;
982;SDS011;480;48.124;11.578;2023-04-25T01:35:21;1.97;;;1.87;;
982;SDS011;480;48.124;11.578;2023-04-25T01:37:50;2.53;;;2.00;;
982;SDS011;480;48.124;11.578;2023-04-25T01:40:19;2.13;;;1.93;;
982;SDS011;480;48.124;11.578;2023-04-25T01:42:47;2.27;;;2.10;;
982;SDS011;480;48.124;11.578;2023-04-25T01:45:15;1.47;;;1.37;;
982;SDS011;480;48.124;11.578;2023-04-25T01:47:43;2.10;;;1.60;;
982;SDS011;480;48.124;11.578;2023-04-25T01:50:14;2.87;;;2.40;;
982;SDS011;480;48.124;11.578;2023-04-25T01:52:42;2.80;;;2.03;;
982;SDS011;480;48.124;11.578;2023-04-25T01:55:09;2.60;;;1.90;;
982;SDS011;480;48.124;11.578;2023-04-25T01:57:37;1.83;;;1.70;;
982;SDS011;480;48.124;11.578;2023-04-25T02:00:05;2.60;;;2.00;;
982;SDS011;480;48.124;11.578;2023-04-25T02:02:34;1.80;;;1.70;;
982;SDS011;480;48.124;11.578;2023-04-25T02:05:01;2.80;;;1.80;;
982;SDS011;480;48.124;11.578;2023-04-25T02:07:28;2.50;;;2.20;;
982;SDS011;480;48.124;11.578;2023-04-25T02:09:54;2.80;;;1.83;;
982;SDS011;480;48.124;11.578;2023-04-25T02:12:21;1.80;;;1.70;;
982;SDS011;480;48.124;11.578;2023-04-25T02:14:50;2.80;;;2.10;;
982;SDS011;480;48.124;11.578;2023-04-25T02:17:17;1.87;;;1.77;;
982;SDS011;480;48.124;11.578;2023-04-25T02:19:46;1.93;;;1.73;;
982;SDS011;480;48.124;11.578;2023-04-25T02:22:13;3.17;;;2.00;;
982;SDS011;480;48.124;11.578;2023-04-25T02:24:40;2.00;;;1.90;;
982;SDS011;480;48.124;11.578;2023-04-25T02:27:07;5.60;;;2.77;;
982;SDS011;480;48.124;11.578;2023-04-25T02:29:34;2.80;;;2.20;;
982;SDS011;480;48.124;11.578;2023-04-25T02:32:02;1.80;;;1.70;;
982;SDS011;480;48.124;11.578;2023-04-25T02:34:30;2.37;;;2.10;;
982;SDS011;480;48.124;11.578;2023-04-25T02:36:57;3.20;;;1.80;;
982;SDS011;480;48.124;11.578;2023-04-25T02:39:24;2.83;;;2.07;;
982;SDS011;480;48.124;11.578;2023-04-25T02:41:52;2.23;;;2.13;;
982;SDS011;480;48.124;11.578;2023-04-25T02:44:19;2.43;;;2.23;;
982;SDS011;480;48.124;11.578;2023-04-25T02:46:46;2.37;;;2.20;;
982;SDS011;480;48.124;11.578;2023-04-25T02:49:14;1.87;;;1.70;;
982;SDS011;480;48.124;11.578;2023-04-25T02:51:41;1.97;;;1.80;;
982;SDS011;480;48.124;11.578;2023-04-25T02:54:08;2.80;;;1.70;;
982;SDS011;480;48.124;11.578;2023-04-25T02:56:35;1.80;;;1.70;;
982;SDS011;480;48.124;11.578;2023-04-25T02:59:02;2.30;;;2.10;;
982;SDS011;480;48.124;11.578;2023-04-25T03:01:29;2.10;;;1.90;;
982;SDS011;480;48.124;11.578;2023-04-25T03:03:56;3.00;;;2.37;;
982;SDS011;480;48.124;11.578;2023-04-25T03:06:25;1.83;;;1.73;;
982;SDS011;480;48.124;11.578;2023-04-25T03:08:52;1.73;;;1.60;;
982;SDS011;480;48.124;11.578;2023-04-25T03:11:19;2.27;;;1.73;;
982;SDS011;480;48.124;11.578;2023-04-25T03:13:46;2.50;;;2.13;;
982;SDS011;480;48.124;11.578;2023-04-25T03:16:13;1.87;;;1.77;;
982;SDS011;480;48.124;11.578;2023-04-25T03:18:40;2.33;;;2.13;;
982;SDS011;480;48.124;11.578;2023-04-25T03:21:07;2.43;;;2.10;;
982;SDS011;480;48.124;11.578;2023-04-25T03:23:36;2.30;;;2.10;;
982;SDS011;480;48.124;11.578;2023-04-25T03:26:03;3.07;;;2.00;;
982;SDS011;480;48.124;11.578;2023-04-25T03:28:30;1.77;;;1.67;;
982;SDS011;480;48.124;11.578;2023-04-25T03:30:57;2.30;;;2.13;;
982;SDS011;480;48.124;11.578;2023-04-25T03:33:24;2.97;;;1.90;;
982;SDS011;480;48.124;11.578;2023-04-25T03:35:51;2.10;;;2.00;;
982;SDS011;480;48.124;11.578;2023-04-25T03:38:18;2.73;;;2.10;;
982;SDS011;480;48.124;11.578;2023-04-25T03:40:46;2.30;;;2.10;;
982;SDS011;480;48.124;11.578;2023-04-25T03:43:13;3.27;;;1.80;;
982;SDS011;480;48.124;11.578;2023-04-25T03:45:40;2.40;;;2.10;;
982;SDS011;480;48.124;11.578;2023-04-25T03:48:07;1.70;;;1.60;;
982;SDS011;480;48.124;11.578;2023-04-25T03:50:34;2.07;;;1.87;;
982;SDS011;480;48.124;11.578;2023-04-25T03:53:01;2.67;;;1.57;;
982;SDS011;480;48.124;11.578;2023-04-25T03:55:28;1.80;;;1.70;;
982;SDS011;480;48.124;11.578;2023-04-25T03:57:57;2.47;;;2.27;;
982;SDS011;480;48.124;11.578;2023-04-25T04:00:24;2.40;;;1.60;;
982;SDS011;480;48.124;11.578;2023-04-25T04:02:51;1.40;;;1.30;;
982;SDS011;480;48.124;11.578;2023-04-25T04:05:18;3.87;;;1.97;;
982;SDS011;480;48.124;11.578;2023-04-25T04:07:45;1.40;;;1.30;;
982;SDS011;480;48.124;11.578;2023-04-25T04:10:12;1.73;;;1.63;;
982;SDS011;480;48.124;11.578;2023-04-25T04:12:39;1.87;;;1.77;;
982;SDS011;480;48.124;11.578;2023-04-25T04:15:08;3.40;;;1.37;;
982;SDS011;480;48.124;11.578;2023-04-25T04:17:36;2.30;;;1.60;;
982;SDS011;480;48.124;11.578;2023-04-25T04:20:03;3.13;;;1.60;;
982;SDS011;480;48.124;11.578;2023-04-25T04:22:32;1.77;;;1.43;;
982;SDS011;480;48.124;11.578;2023-04-25T04:24:59;1.47;;;1.37;;
982;SDS011;480;48.124;11.578;2023-04-25T04:27:27;1.57;;;1.47;;
982;SDS011;480;48.124;11.578;2023-04-25T04:29:54;1.50;;;1.40;;
982;SDS011;480;48.124;11.578;2023-04-25T04:32:24;1.67;;;1.20;;
982;SDS011;480;48.124;11.578;2023-04-25T04:34:52;2.10;;;1.80;;
982;SDS011;480;48.124;11.578;2023-04-25T04:37:21;6.87;;;2.40;;
982;SDS011;480;48.124;11.578;2023-04-25T04:39:47;1.37;;;1.27;;
982;SDS011;480;48.124;11.578;2023-04-25T04:42:15;3.33;;;3.03;;
982;SDS011;480;48.124;11.578;2023-04-25T04:44:42;1.63;;;1.53;;
982;SDS011;480;48.124;11.578;2023-04-25T04:47:09;1.70;;;1.60;;
982;SDS011;480;48.124;11.578;2023-04-25T04:49:40;2.13;;;1.73;;
982;SDS011;480;48.124;11.578;2023-04-25T04:52:07;1.67;;;1.57;;
982;SDS011;480;48.124;11.578;2023-04-25T04:54:34;2.53;;;1.67;;
982;SDS011;480;48.124;11.578;2023-04-25T04:57:01;2.53;;;2.33;;
982;SDS011;480;48.124;11.578;2023-04-25T04:59:28;1.67;;;1.57;;
982;SDS011;480;48.124;11.578;2023-04-25T05:01:55;2.27;;;2.13;;
982;SDS011;480;48.124;11.578;2023-04-25T05:04:22;2.13;;;1.93;;
982;SDS011;480;48.124;11.578;2023-04-25T05:06:51;2.33;;;1.60;;
982;SDS011;480;48.124;11.578;2023-04-25T05:09:18;2.20;;;1.50;;
982;SDS011;480;48.124;11.578;2023-04-25T05:11:45;1.90;;;1.53;;
982;SDS011;480;48.124;11.578;2023-04-25T05:14:12;1.97;;;1.50;;
982;SDS011;480;48.124;11.578;2023-04-25T05:16:39;2.60;;;1.97;;
982;SDS011;480;48.124;11.578;2023-04-25T05:19:06;2.70;;;1.70;;
982;SDS011;480;48.124;11.578;2023-04-25T05:21:33;2.20;;;1.87;;
982;SDS011;480;48.124;11.578;2023-04-25T05:24:01;3.67;;;1.70;;
982;SDS011;480;48.124;11.578;2023-04-25T05:26:29;2.53;;;2.33;;
982;SDS011;480;48.124;11.578;2023-04-25T05:28:56;1.93;;;1.83;;
982;SDS011;480;48.124;11.578;2023-04-25T05:31:23;1.63;;;1.53;;
982;SDS011;480;48.124;11.578;2023-04-25T05:33:51;4.37;;;2.70;;
982;SDS011;480;48.124;11.578;2023-04-25T05:36:18;2.00;;;1.83;;
982;SDS011;480;48.124;11.578;2023-04-25T05:38:46;2.60;;;2.03;;
982;SDS011;480;48.124;11.578;2023-04-25T05:41:14;3.40;;;3.10;;
982;SDS011;480;48.124;11.578;2023-04-25T05:43:41;7.70;;;2.17;;
982;SDS011;480;48.124;11.578;2023-04-25T05:46:11;2.17;;;1.83;;
982;SDS011;480;48.124;11.578;2023-04-25T05:48:39;2.40;;;2.20;;
982;SDS011;480;48.124;11.578;2023-04-25T05:51:06;2.30;;;2.10;;
982;SDS011;480;48.124;11.578;2023-04-25T05:53:33;2.80;;;1.70;;
982;SDS011;480;48.124;11.578;2023-04-25T05:56:00;2.03;;;1.90;;
982;SDS011;480;48.124;11.578;2023-04-25T05:58:29;3.03;;;2.83;;
982;SDS011;480;48.124;11.578;2023-04-25T06:00:56;4.10;;;2.83;;
982;SDS011;480;48.124;11.578;2023-04-25T06:03:23;2.30;;;2.10;;
982;SDS011;480;48.124;11.578;2023-04-25T06:05:50;2.50;;;2.00;;
982;SDS011;480;48.124;11.578;2023-04-25T06:08:17;2.10;;;1.30;;
982;SDS011;480;48.124;11.578;2023-04-25T06:10:44;1.73;;;1.43;;
982;SDS011;480;48.124;11.578;2023-04-25T06:13:11;2.90;;;2.00;;
982;SDS011;480;48.124;11.578;2023-04-25T06:15:39;1.70;;;1.60;;
982;SDS011;480;48.124;11.578;2023-04-25T06:18:06;2.50;;;2.00;;
982;SDS011;480;48.124;11.578;2023-04-25T06:20:33;3.80;;;2.97;;
982;SDS011;480;48.124;11.578;2023-04-25T06:23:00;2.30;;;2.10;;
982;SDS011;480;48.124;11.578;2023-04-25T06:25:27;2.07;;;1.87;;
982;SDS011;480;48.124;11.578;2023-04-25T06:27:54;2.53;;;2.03;;
982;SDS011;480;48.124;11.578;2023-04-25T06:30:21;2.13;;;1.80;;
982;SDS011;480;48.124;11.578;2023-04-25T06:32:52;2.07;;;1.87;;
982;SDS011;480;48.124;11.578;2023-04-25T06:35:19;2.90;;;2.40;;
982;SDS011;480;48.124;11.578;2023-04-25T06:37:47;2.90;;;2.20;;
982;SDS011;480;48.124;11.578;2023-04-25T06:40:15;3.80;;;2.30;;
982;SDS011;480;48.124;11.578;2023-04-25T06:42:42;3.93;;;2.70;;
982;SDS011;480;48.124;11.578;2023-04-25T06:45:09;3.90;;;2.43;;
982;SDS011;480;48.124;11.578;2023-04-25T06:47:37;2.47;;;2.23;;
982;SDS011;480;48.124;11.578;2023-04-25T06:50:06;2.47;;;2.27;;
982;SDS011;480;48.124;11.578;2023-04-25T06:52:33;1.93;;;1.77;;
982;SDS011;480;48.124;11.578;2023-04-25T06:55:00;3.40;;;2.70;;
982;SDS011;480;48.124;11.578;2023-04-25T06:57:27;2.13;;;2.00;;
982;SDS011;480;48.124;11.578;2023-04-25T06:59:54;2.50;;;2.40;;
982;SDS011;480;48.124;11.578;2023-04-25T07:02:21;3.73;;;3.10;;
982;SDS011;480;48.124;11.578;2023-04-25T07:04:48;4.63;;;3.17;;
982;SDS011;480;48.124;11.578;2023-04-25T07:07:17;3.27;;;2.97;;
982;SDS011;480;48.124;11.578;2023-04-25T07:09:44;4.20;;;2.70;;
982;SDS011;480;48.124;11.578;2023-04-25T07:12:11;2.97;;;2.77;;
982;SDS011;480;48.124;11.578;2023-04-25T07:14:38;3.10;;;2.20;;
982;SDS011;480;48.124;11.578;2023-04-25T07:17:05;3.73;;;2.27;;
982;SDS011;480;48.124;11.578;2023-04-25T07:19:32;3.97;;;2.83;;
982;SDS011;480;48.124;11.578;2023-04-25T07:21:59;4.90;;;2.47;;
982;SDS011;480;48.124;11.578;2023-04-25T07:24:28;2.53;;;2.40;;
982;SDS011;480;48.124;11.578;2023-04-25T07:26:55;3.23;;;2.33;;
982;SDS011;480;48.124;11.578;2023-04-25T07:29:22;3.90;;;2.77;;
982;SDS011;480;48.124;11.578;2023-04-25T07:31:50;3.93;;;2.77;;
982;SDS011;480;48.124;11.578;2023-04-25T07:34:16;3.43;;;2.40;;
982;SDS011;480;48.124;11.578;2023-04-25T07:36:43;4.17;;;3.07;;
982;SDS011;480;48.124;11.578;2023-04-25T07:39:11;3.63;;;2.50;;
982;SDS011;480;48.124;11.578;2023-04-25T07:41:39;4.47;;;3.90;;
982;SDS011;480;48.124;11.578;2023-04-25T07:44:06;3.70;;;2.73;;
982;SDS011;480;48.124;11.578;2023-04-25T07:46:33;3.73;;;3.20;;
982;SDS011;480;48.124;11.578;2023-04-25T07:49:01;8.17;;;2.70;;
982;SDS011;480;48.124;11.578;2023-04-25T07:51:28;2.87;;;2.67;;
982;SDS011;480;48.124;11.578;2023-04-25T07:53:56;2.30;;;2.17;;
982;SDS011;480;48.124;11.578;2023-04-25T07:56:24;3.43;;;2.33;;
982;SDS011;480;48.124;11.578;2023-04-25T07:58:53;4.27;;;2.77;;
982;SDS011;480;48.124;11.578;2023-04-25T08:01:20;2.13;;;1.97;;
982;SDS011;480;48.124;11.578;2023-04-25T08:03:47;4.60;;;2.70;;
982;SDS011;480;48.124;11.578;2023-04-25T08:06:14;8.43;;;3.73;;
982;SDS011;480;48.124;11.578;2023-04-25T08:08:41;3.63;;;2.83;;
982;SDS011;480;48.124;11.578;2023-04-25T08:11:08;3.97;;;2.63;;
982;SDS011;480;48.124;11.578;2023-04-25T08:13:40;4.30;;;2.07;;
982;SDS011;480;48.124;11.578;2023-04-25T08:16:08;3.13;;;2.73;;
982;SDS011;480;48.124;11.578;2023-04-25T08:18:35;2.77;;;2.50;;
982;SDS011;480;48.124;11.578;2023-04-25T08:21:02;3.87;;;2.20;;
982;SDS011;480;48.124;11.578;2023-04-25T08:23:29;2.80;;;2.53;;
982;SDS011;480;48.124;11.578;2023-04-25T08:25:56;2.60;;;2.27;;
982;SDS011;480;48.124;11.578;2023-04-25T08:28:23;3.57;;;3.27;;
982;SDS011;480;48.124;11.578;2023-04-25T08:30:50;1.80;;;1.70;;
982;SDS011;480;48.124;11.578;2023-04-25T08:33:19;2.53;;;2.27;;
982;SDS011;480;48.124;11.578;2023-04-25T08:35:46;2.87;;;2.43;;
982;SDS011;480;48.124;11.578;2023-04-25T08:38:13;2.27;;;2.17;;
982;SDS011;480;48.124;11.578;2023-04-25T08:40:40;3.80;;;3.20;;
982;SDS011;480;48.124;11.578;2023-04-25T08:43:09;3.30;;;2.73;;
982;SDS011;480;48.124;11.578;2023-04-25T08:45:40;2.17;;;2.03;;
982;SDS011;480;48.124;11.578;2023-04-25T08:48:10;4.07;;;2.80;;
982;SDS011;480;48.124;11.578;2023-04-25T08:50:40;2.43;;;2.30;;
982;SDS011;480;48.124;11.578;2023-04-25T08:53:15;2.50;;;2.30;;
982;SDS011;480;48.124;11.578;2023-04-25T08:55:47;3.23;;;1.80;;
982;SDS011;480;48.124;11.578;2023-04-25T08:58:16;2.00;;;1.90;;
982;SDS011;480;48.124;11.578;2023-04-25T09:00:45;4.20;;;1.80;;
982;SDS011;480;48.124;11.578;2023-04-25T09:03:12;3.00;;;2.10;;
982;SDS011;480;48.124;11.578;2023-04-25T09:05:41;3.17;;;1.90;;
982;SDS011;480;48.124;11.578;2023-04-25T09:08:09;2.63;;;2.53;;
982;SDS011;480;48.124;11.578;2023-04-25T09:10:36;2.20;;;2.00;;
982;SDS011;480;48.124;11.578;2023-04-25T09:13:04;2.53;;;1.50;;
982;SDS011;480;48.124;11.578;2023-04-25T09:15:33;1.67;;;1.57;;
982;SDS011;480;48.124;11.578;2023-04-25T09:18:14;1.63;;;1.53;;
982;SDS011;480;48.124;11.578;2023-04-25T09:20:50;1.90;;;1.80;;
982;SDS011;480;48.124;11.578;2023-04-25T09:23:18;1.90;;;1.80;;
982;SDS011;480;48.124;11.578;2023-04-25T09:25:47;2.50;;;1.57;;
982;SDS011;480;48.124;11.578;2023-04-25T09:28:15;1.80;;;1.27;;
982;SDS011;480;48.124;11.578;2023-04-25T09:30:42;2.10;;;1.43;;
982;SDS011;480;48.124;11.578;2023-04-25T09:33:09;1.67;;;1.50;;
982;SDS011;480;48.124;11.578;2023-04-25T09:35:38;1.37;;;1.27;;
982;SDS011;480;48.124;11.578;2023-04-25T09:38:12;3.50;;;1.73;;
982;SDS011;480;48.124;11.578;2023-04-25T09:40:40;1.60;;;1.37;;
982;SDS011;480;48.124;11.578;2023-04-25T09:43:10;2.60;;;1.70;;
982;SDS011;480;48.124;11.578;2023-04-25T09:45:44;2.50;;;1.47;;
982;SDS011;480;48.124;11.578;2023-04-25T09:48:15;2.93;;;2.10;;
982;SDS011;480;48.124;11.578;2023-04-25T09:50:44;2.87;;;1.73;;
982;SDS011;480;48.124;11.578;2023-04-25T09:53:13;5.77;;;1.93;;
982;SDS011;480;48.124;11.578;2023-04-25T09:55:40;2.30;;;1.53;;
982;SDS011;480;48.124;11.578;2023-04-25T09:58:09;2.43;;;1.63;;
982;SDS011;480;48.124;11.578;2023-04-25T10:00:39;2.93;;;1.70;;
982;SDS011;480;48.124;11.578;2023-04-25T10:03:07;1.90;;;1.80;;
982;SDS011;480;48.124;11.578;2023-04-25T10:05:35;1.83;;;1.73;;
982;SDS011;480;48.124;11.578;2023-04-25T10:08:03;2.90;;;1.60;;
982;SDS011;480;48.124;11.578;2023-04-25T10:10:33;3.13;;;2.50;;
982;SDS011;480;48.124;11.578;2023-04-25T10:13:03;6.83;;;2.00;;
982;SDS011;480;48.124;11.578;2023-04-25T10:15:32;2.10;;;1.47;;
982;SDS011;480;48.124;11.578;2023-04-25T10:18:01;2.63;;;1.80;;
982;SDS011;480;48.124;11.578;2023-04-25T10:20:29;1.73;;;1.63;;
982;SDS011;480;48.124;11.578;2023-04-25T10:22:58;1.83;;;1.63;;
982;SDS011;480;48.124;11.578;2023-04-25T10:25:34;2.23;;;1.53;;
982;SDS011;480;48.124;11.578;2023-04-25T10:28:03;1.90;;;1.80;;
982;SDS011;480;48.124;11.578;2023-04-25T10:30:30;1.57;;;1.47;;
982;SDS011;480;48.124;11.578;2023-04-25T10:32:58;1.40;;;1.30;;
982;SDS011;480;48.124;11.578;2023-04-25T10:35:26;1.80;;;1.70;;
982;SDS011;480;48.124;11.578;2023-04-25T10:37:57;3.00;;;1.97;;
982;SDS011;480;48.124;11.578;2023-04-25T10:40:25;2.63;;;1.93;;
982;SDS011;480;48.124;11.578;2023-04-25T10:42:53;3.60;;;1.70;;
982;SDS011;480;48.124;11.578;2023-04-25T10:45:21;1.80;;;1.70;;
982;SDS011;480;48.124;11.578;2023-04-25T10:47:48;1.53;;;1.30;;
982;SDS011;480;48.124;11.578;2023-04-25T10:50:15;2.20;;;1.87;;
982;SDS011;480;48.124;11.578;2023-04-25T10:52:42;2.33;;;2.23;;
982;SDS011;480;48.124;11.578;2023-04-25T10:55:10;1.00;;;1.00;;
982;SDS011;480;48.124;11.578;2023-04-25T10:57:38;1.03;;;1.03;;
982;SDS011;480;48.124;11.578;2023-04-25T11:00:17;2.93;;;1.70;;
982;SDS011;480;48.124;11.578;2023-04-25T11:02:47;1.67;;;1.57;;
982;SDS011;480;48.124;11.578;2023-04-25T11:05:20;2.50;;;1.80;;
982;SDS011;480;48.124;11.578;2023-04-25T11:07:49;1.80;;;1.70;;
982;SDS011;480;48.124;11.578;2023-04-25T11:10:18;1.57;;;1.47;;
982;SDS011;480;48.124;11.578;2023-04-25T11:12:45;1.97;;;1.80;;
982;SDS011;480;48.124;11.578;2023-04-25T11:15:12;2.40;;;2.20;;
982;SDS011;480;48.124;11.578;2023-04-25T11:17:41;2.03;;;1.70;;
982;SDS011;480;48.124;11.578;2023-04-25T11:20:10;2.10;;;1.70;;
982;SDS011;480;48.124;11.578;2023-04-25T11:22:39;1.70;;;1.60;;
982;SDS011;480;48.124;11.578;2023-04-25T11:25:07;1.90;;;1.80;;
982;SDS011;480;48.124;11.578;2023-04-25T11:27:37;1.20;;;1.10;;
982;SDS011;480;48.124;11.578;2023-04-25T11:30:12;1.70;;;1.60;;
982;SDS011;480;48.124;11.578;2023-04-25T11:32:42;2.00;;;1.37;;
982;SDS011;480;48.124;11.578;2023-04-25T11:35:10;1.30;;;1.20;;
982;SDS011;480;48.124;11.578;2023-04-25T11:37:38;2.10;;;1.30;;
982;SDS011;480;48.124;11.578;2023-04-25T11:40:06;1.10;;;1.00;;
982;SDS011;480;48.124;11.578;2023-04-25T11:42:36;2.97;;;1.27;;
982;SDS011;480;48.124;11.578;2023-04-25T11:45:05;1.60;;;1.50;;
982;SDS011;480;48.124;11.578;2023-04-25T11:47:33;1.97;;;1.50;;
982;SDS011;480;48.124;11.578;2023-04-25T11:50:02;1.50;;;1.40;;
982;SDS011;480;48.124;11.578;2023-04-25T11:52:40;5.00;;;1.60;;
982;SDS011;480;48.124;11.578;2023-04-25T11:55:09;2.07;;;1.70;;
982;SDS011;480;48.124;11.578;2023-04-25T11:57:39;3.97;;;1.67;;
982;SDS011;480;48.124;11.578;2023-04-25T12:00:10;5.50;;;2.10;;
982;SDS011;480;48.124;11.578;2023-04-25T12:02:42;1.83;;;1.67;;
982;SDS011;480;48.124;11.578;2023-04-25T12:05:13;1.60;;;1.30;;
982;SDS011;480;48.124;11.578;2023-04-25T12:07:41;2.40;;;1.70;;
982;SDS011;480;48.124;11.578;2023-04-25T12:10:10;1.97;;;1.40;;
982;SDS011;480;48.124;11.578;2023-04-25T12:12:40;1.30;;;1.20;;
982;SDS011;480;48.124;11.578;2023-04-25T12:15:09;1.27;;;1.17;;
982;SDS011;480;48.124;11.578;2023-04-25T12:17:38;1.40;;;1.33;;
982;SDS011;480;48.124;11.578;2023-04-25T12:20:06;1.23;;;1.13;;
982;SDS011;480;48.124;11.578;2023-04-25T12:22:35;1.20;;;1.10;;
982;SDS011;480;48.124;11.578;2023-04-25T12:25:02;2.67;;;2.27;;
982;SDS011;480;48.124;11.578;2023-04-25T12:27:30;1.43;;;1.30;;
982;SDS011;480;48.124;11.578;2023-04-25T12:29:59;1.10;;;1.00;;
982;SDS011;480;48.124;11.578;2023-04-25T12:32:26;0.73;;;0.73;;
982;SDS011;480;48.124;11.578;2023-04-25T12:34:53;1.43;;;1.33;;
982;SDS011;480;48.124;11.578;2023-04-25T12:37:20;1.33;;;1.10;;
982;SDS011;480;48.124;11.578;2023-04-25T12:39:49;1.10;;;1.10;;
982;SDS011;480;48.124;11.578;2023-04-25T12:42:16;1.53;;;1.10;;
982;SDS011;480;48.124;11.578;2023-04-25T12:44:43;1.23;;;1.23;;
982;SDS011;480;48.124;11.578;2023-04-25T12:47:11;1.00;;;0.90;;
982;SDS011;480;48.124;11.578;2023-04-25T12:49:38;1.43;;;1.33;;
982;SDS011;480;48.124;11.578;2023-04-25T12:52:05;0.97;;;0.93;;
982;SDS011;480;48.124;11.578;2023-04-25T12:54:32;1.27;;;1.13;;
982;SDS011;480;48.124;11.578;2023-04-25T12:57:01;2.20;;;2.00;;
982;SDS011;480;48.124;11.578;2023-04-25T12:59:28;1.30;;;1.20;;
982;SDS011;480;48.124;11.578;2023-04-25T13:01:55;1.30;;;1.20;;
982;SDS011;480;48.124;11.578;2023-04-25T13:04:22;1.73;;;1.60;;
982;SDS011;480;48.124;11.578;2023-04-25T13:06:50;1.93;;;1.40;;
982;SDS011;480;48.124;11.578;2023-04-25T13:09:17;0.97;;;0.97;;
982;SDS011;480;48.124;11.578;2023-04-25T13:11:44;1.13;;;0.90;;
982;SDS011;480;48.124;11.578;2023-04-25T13:14:12;0.87;;;0.83;;
982;SDS011;480;48.124;11.578;2023-04-25T13:16:39;0.90;;;0.90;;
982;SDS011;480;48.124;11.578;2023-04-25T13:19:06;0.80;;;0.80;;
982;SDS011;480;48.124;11.578;2023-04-25T13:21:36;0.93;;;0.93;;
982;SDS011;480;48.124;11.578;2023-04-25T13:24:03;1.10;;;1.00;;
982;SDS011;480;48.124;11.578;2023-04-25T13:26:30;1.07;;;0.90;;
982;SDS011;480;48.124;11.578;2023-04-25T13:28:57;1.20;;;1.10;;
982;SDS011;480;48.124;11.578;2023-04-25T13:31:26;0.93;;;0.90;;
982;SDS011;480;48.124;11.578;2023-04-25T13:33:53;3.53;;;1.87;;
982;SDS011;480;48.124;11.578;2023-04-25T13:36:21;1.50;;;1.40;;
982;SDS011;480;48.124;11.578;2023-04-25T13:38:48;1.30;;;1.20;;
982;SDS011;480;48.124;11.578;2023-04-25T13:41:14;1.03;;;0.93;;
982;SDS011;480;48.124;11.578;2023-04-25T13:43:43;1.10;;;1.00;;
982;SDS011;480;48.124;11.578;2023-04-25T13:46:12;1.33;;;1.10;;
982;SDS011;480;48.124;11.578;2023-04-25T13:48:42;1.10;;;1.03;;
982;SDS011;480;48.124;11.578;2023-04-25T13:51:13;1.40;;;1.23;;
982;SDS011;480;48.124;11.578;2023-04-25T13:53:41;0.90;;;0.90;;
982;SDS011;480;48.124;11.578;2023-04-25T13:56:08;1.70;;;1.13;;
982;SDS011;480;48.124;11.578;2023-04-25T13:58:36;2.93;;;0.93;;
982;SDS011;480;48.124;11.578;2023-04-25T14:01:03;1.00;;;1.00;;
982;SDS011;480;48.124;11.578;2023-04-25T14:03:30;1.17;;;1.07;;
982;SDS011;480;48.124;11.578;2023-04-25T14:05:59;1.30;;;1.20;;
982;SDS011;480;48.124;11.578;2023-04-25T14:08:26;0.80;;;0.80;;
982;SDS011;480;48.124;11.578;2023-04-25T14:10:53;2.30;;;1.47;;
982;SDS011;480;48.124;11.578;2023-04-25T14:13:21;0.73;;;0.73;;
982;SDS011;480;48.124;11.578;2023-04-25T14:15:48;1.57;;;1.47;;
982;SDS011;480;48.124;11.578;2023-04-25T14:18:16;1.40;;;1.17;;
982;SDS011;480;48.124;11.578;2023-04-25T14:20:43;1.20;;;1.10;;
982;SDS011;480;48.124;11.578;2023-04-25T14:23:12;1.83;;;1.17;;
982;SDS011;480;48.124;11.578;2023-04-25T14:25:39;1.20;;;1.10;;
982;SDS011;480;48.124;11.578;2023-04-25T14:28:07;3.10;;;1.37;;
982;SDS011;480;48.124;11.578;2023-04-25T14:30:34;0.87;;;0.87;;
982;SDS011;480;48.124;11.578;2023-04-25T14:33:01;1.03;;;1.03;;
982;SDS011;480;48.124;11.578;2023-04-25T14:35:29;1.37;;;1.13;;
982;SDS011;480;48.124;11.578;2023-04-25T14:37:56;1.10;;;1.07;;
982;SDS011;480;48.124;11.578;2023-04-25T14:40:25;1.40;;;1.33;;
982;SDS011;480;48.124;11.578;2023-04-25T14:42:52;0.77;;;0.77;;
982;SDS011;480;48.124;11.578;2023-04-25T14:45:19;0.90;;;0.90;;
982;SDS011;480;48.124;11.578;2023-04-25T14:47:46;1.37;;;1.27;;
982;SDS011;480;48.124;11.578;2023-04-25T14:50:13;2.67;;;2.30;;
982;SDS011;480;48.124;11.578;2023-04-25T14:52:40;1.70;;;1.60;;
982;SDS011;480;48.124;11.578;2023-04-25T14:55:08;1.60;;;1.50;;
982;SDS011;480;48.124;11.578;2023-04-25T14:57:36;1.17;;;1.13;;
982;SDS011;480;48.124;11.578;2023-04-25T15:00:05;1.17;;;1.00;;
982;SDS011;480;48.124;11.578;2023-04-25T15:02:34;1.00;;;0.80;;
982;SDS011;480;48.124;11.578;2023-04-25T15:05:03;1.70;;;1.00;;
982;SDS011;480;48.124;11.578;2023-04-25T15:07:31;2.23;;;1.20;;
982;SDS011;480;48.124;11.578;2023-04-25T15:09:59;0.83;;;0.80;;
982;SDS011;480;48.124;11.578;2023-04-25T15:12:26;1.30;;;1.20;;
982;SDS011;480;48.124;11.578;2023-04-25T15:14:55;0.97;;;0.90;;
982;SDS011;480;48.124;11.578;2023-04-25T15:17:22;0.77;;;0.77;;
982;SDS011;480;48.124;11.578;2023-04-25T15:19:49;0.90;;;0.90;;
982;SDS011;480;48.124;11.578;2023-04-25T15:22:16;1.20;;;1.10;;
982;SDS011;480;48.124;11.578;2023-04-25T15:24:43;1.57;;;0.90;;
982;SDS011;480;48.124;11.578;2023-04-25T15:27:10;0.87;;;0.87;;
982;SDS011;480;48.124;11.578;2023-04-25T15:29:37;1.33;;;0.90;;
982;SDS011;480;48.124;11.578;2023-04-25T15:32:06;1.07;;;1.07;;
982;SDS011;480;48.124;11.578;2023-04-25T15:34:33;3.20;;;1.00;;